sensor_id;sensor_type;location;lat;lon;timestamp;P1;durP1;ratioP1;P2;durP2;ratioP2
79074;SDS011;68476;42.710;23.388;2023-06-22T00:01:54;11.27;;;8.18;;
79074;SDS011;68476;42.710;23.388;2023-06-22T00:04:19;9.55;;;7.95;;
79074;SDS011;68476;42.710;23.388;2023-06-22T00:06:45;10.55;;;8.80;;
79074;SDS011;68476;42.710;23.388;2023-06-22T00:09:10;10.07;;;8.50;;
79074;SDS011;68476;42.710;23.388;2023-06-22T00:11:39;9.90;;;8.52;;
79074;SDS011;68476;42.710;23.388;2023-06-22T00:14:04;9.70;;;7.80;;
79074;SDS011;68476;42.710;23.388;2023-06-22T00:16:31;9.48;;;8.15;;
79074;SDS011;68476;42.710;23.388;2023-06-22T00:18:57;9.68;;;8.00;;
79074;SDS011;68476;42.710;23.388;2023-06-22T00:21:25;12.18;;;8.20;;
79074;SDS011;68476;42.710;23.388;2023-06-22T00:23:51;10.00;;;8.30;;
79074;SDS011;68476;42.710;23.388;2023-06-22T00:26:17;10.00;;;8.38;;
79074;SDS011;68476;42.710;23.388;2023-06-22T00:28:42;11.32;;;8.57;;
79074;SDS011;68476;42.710;23.388;2023-06-22T00:31:08;9.50;;;8.52;;
79074;SDS011;68476;42.710;23.388;2023-06-22T00:33:33;10.27;;;7.82;;
79074;SDS011;68476;42.710;23.388;2023-06-22T00:35:58;10.77;;;8.70;;
79074;SDS011;68476;42.710;23.388;2023-06-22T00:38:24;9.52;;;8.52;;
79074;SDS011;68476;42.710;23.388;2023-06-22T00:40:49;10.30;;;8.55;;
79074;SDS011;68476;42.710;23.388;2023-06-22T00:43:15;12.63;;;9.20;;
79074;SDS011;68476;42.710;23.388;2023-06-22T00:45:40;10.07;;;8.48;;
79074;SDS011;68476;42.710;23.388;2023-06-22T00:48:06;13.00;;;8.88;;
79074;SDS011;68476;42.710;23.388;2023-06-22T00:50:33;10.10;;;8.65;;
79074;SDS011;68476;42.710;23.388;2023-06-22T00:53:06;11.25;;;9.30;;
79074;SDS011;68476;42.710;23.388;2023-06-22T00:55:43;11.50;;;8.85;;
79074;SDS011;68476;42.710;23.388;2023-06-22T00:58:10;9.68;;;8.48;;
79074;SDS011;68476;42.710;23.388;2023-06-22T01:00:36;11.25;;;8.48;;
79074;SDS011;68476;42.710;23.388;2023-06-22T01:03:03;13.48;;;8.82;;
79074;SDS011;68476;42.710;23.388;2023-06-22T01:05:29;12.13;;;8.68;;
79074;SDS011;68476;42.710;23.388;2023-06-22T01:18:46;11.30;;;8.35;;
79074;SDS011;68476;42.710;23.388;2023-06-22T01:21:16;10.77;;;8.85;;
79074;SDS011;68476;42.710;23.388;2023-06-22T01:24:06;10.73;;;9.13;;
79074;SDS011;68476;42.710;23.388;2023-06-22T01:31:31;11.10;;;9.00;;
79074;SDS011;68476;42.710;23.388;2023-06-22T01:34:00;13.18;;;9.07;;
79074;SDS011;68476;42.710;23.388;2023-06-22T01:36:29;12.45;;;8.57;;
79074;SDS011;68476;42.710;23.388;2023-06-22T01:38:56;10.73;;;9.43;;
79074;SDS011;68476;42.710;23.388;2023-06-22T01:41:25;12.23;;;9.43;;
79074;SDS011;68476;42.710;23.388;2023-06-22T01:43:51;12.85;;;9.10;;
79074;SDS011;68476;42.710;23.388;2023-06-22T01:46:18;10.50;;;9.00;;
79074;SDS011;68476;42.710;23.388;2023-06-22T01:48:46;13.05;;;9.98;;
79074;SDS011;68476;42.710;23.388;2023-06-22T01:51:12;11.75;;;10.13;;
79074;SDS011;68476;42.710;23.388;2023-06-22T01:53:38;12.05;;;9.63;;
79074;SDS011;68476;42.710;23.388;2023-06-22T01:56:04;11.85;;;9.68;;
79074;SDS011;68476;42.710;23.388;2023-06-22T01:58:30;12.35;;;10.23;;
79074;SDS011;68476;42.710;23.388;2023-06-22T02:01:03;12.48;;;10.40;;
79074;SDS011;68476;42.710;23.388;2023-06-22T02:03:44;11.43;;;9.85;;
79074;SDS011;68476;42.710;23.388;2023-06-22T02:06:27;11.18;;;9.82;;
79074;SDS011;68476;42.710;23.388;2023-06-22T02:09:01;12.50;;;10.60;;
79074;SDS011;68476;42.710;23.388;2023-06-22T02:11:31;15.23;;;9.93;;
79074;SDS011;68476;42.710;23.388;2023-06-22T02:13:58;11.88;;;9.60;;
79074;SDS011;68476;42.710;23.388;2023-06-22T02:16:24;10.70;;;9.02;;
79074;SDS011;68476;42.710;23.388;2023-06-22T02:18:50;11.82;;;9.40;;
79074;SDS011;68476;42.710;23.388;2023-06-22T02:21:19;11.68;;;8.68;;
79074;SDS011;68476;42.710;23.388;2023-06-22T02:23:45;11.20;;;9.07;;
79074;SDS011;68476;42.710;23.388;2023-06-22T02:26:11;11.52;;;8.93;;
79074;SDS011;68476;42.710;23.388;2023-06-22T02:28:38;11.43;;;9.50;;
79074;SDS011;68476;42.710;23.388;2023-06-22T02:31:03;11.93;;;9.20;;
79074;SDS011;68476;42.710;23.388;2023-06-22T02:33:29;12.60;;;9.75;;
79074;SDS011;68476;42.710;23.388;2023-06-22T02:35:54;14.82;;;9.73;;
79074;SDS011;68476;42.710;23.388;2023-06-22T02:38:19;12.15;;;9.02;;
79074;SDS011;68476;42.710;23.388;2023-06-22T02:40:45;12.85;;;8.77;;
79074;SDS011;68476;42.710;23.388;2023-06-22T02:43:11;14.85;;;9.13;;
79074;SDS011;68476;42.710;23.388;2023-06-22T02:45:37;11.07;;;9.43;;
79074;SDS011;68476;42.710;23.388;2023-06-22T02:48:02;12.02;;;9.55;;
79074;SDS011;68476;42.710;23.388;2023-06-22T02:50:28;11.93;;;9.40;;
79074;SDS011;68476;42.710;23.388;2023-06-22T02:52:53;12.05;;;9.23;;
79074;SDS011;68476;42.710;23.388;2023-06-22T02:55:19;13.55;;;9.40;;
79074;SDS011;68476;42.710;23.388;2023-06-22T02:57:44;11.63;;;9.27;;
79074;SDS011;68476;42.710;23.388;2023-06-22T03:00:12;9.93;;;8.70;;
79074;SDS011;68476;42.710;23.388;2023-06-22T03:02:46;12.27;;;9.38;;
79074;SDS011;68476;42.710;23.388;2023-06-22T03:05:13;13.57;;;9.35;;
79074;SDS011;68476;42.710;23.388;2023-06-22T03:07:43;10.18;;;8.63;;
79074;SDS011;68476;42.710;23.388;2023-06-22T03:10:10;13.10;;;9.73;;
79074;SDS011;68476;42.710;23.388;2023-06-22T03:12:36;11.70;;;9.30;;
79074;SDS011;68476;42.710;23.388;2023-06-22T03:15:04;10.52;;;9.40;;
79074;SDS011;68476;42.710;23.388;2023-06-22T03:17:34;11.82;;;9.88;;
79074;SDS011;68476;42.710;23.388;2023-06-22T03:20:00;13.93;;;10.35;;
79074;SDS011;68476;42.710;23.388;2023-06-22T03:22:26;11.98;;;9.77;;
79074;SDS011;68476;42.710;23.388;2023-06-22T03:24:51;12.48;;;10.07;;
79074;SDS011;68476;42.710;23.388;2023-06-22T03:27:17;13.50;;;10.50;;
79074;SDS011;68476;42.710;23.388;2023-06-22T03:29:43;14.05;;;10.93;;
79074;SDS011;68476;42.710;23.388;2023-06-22T03:32:09;13.02;;;10.95;;
79074;SDS011;68476;42.710;23.388;2023-06-22T03:34:35;12.85;;;10.77;;
79074;SDS011;68476;42.710;23.388;2023-06-22T03:37:03;14.15;;;11.48;;
79074;SDS011;68476;42.710;23.388;2023-06-22T03:39:28;15.85;;;11.88;;
79074;SDS011;68476;42.710;23.388;2023-06-22T03:41:54;15.35;;;11.88;;
79074;SDS011;68476;42.710;23.388;2023-06-22T03:44:19;15.55;;;12.15;;
79074;SDS011;68476;42.710;23.388;2023-06-22T03:46:44;16.58;;;12.25;;
79074;SDS011;68476;42.710;23.388;2023-06-22T03:49:10;15.20;;;11.27;;
79074;SDS011;68476;42.710;23.388;2023-06-22T03:51:35;14.98;;;11.57;;
79074;SDS011;68476;42.710;23.388;2023-06-22T03:54:00;11.95;;;9.50;;
79074;SDS011;68476;42.710;23.388;2023-06-22T03:56:26;13.65;;;10.73;;
79074;SDS011;68476;42.710;23.388;2023-06-22T03:58:51;12.68;;;9.77;;
79074;SDS011;68476;42.710;23.388;2023-06-22T04:01:17;12.10;;;9.43;;
79074;SDS011;68476;42.710;23.388;2023-06-22T04:03:42;11.55;;;9.57;;
79074;SDS011;68476;42.710;23.388;2023-06-22T04:06:08;11.38;;;8.98;;
79074;SDS011;68476;42.710;23.388;2023-06-22T04:08:33;13.50;;;8.77;;
79074;SDS011;68476;42.710;23.388;2023-06-22T04:10:59;10.73;;;9.60;;
79074;SDS011;68476;42.710;23.388;2023-06-22T04:13:24;14.15;;;9.98;;
79074;SDS011;68476;42.710;23.388;2023-06-22T04:15:50;11.45;;;9.15;;
79074;SDS011;68476;42.710;23.388;2023-06-22T04:18:15;14.07;;;9.13;;
79074;SDS011;68476;42.710;23.388;2023-06-22T04:20:40;12.25;;;9.57;;
79074;SDS011;68476;42.710;23.388;2023-06-22T04:23:06;14.43;;;10.13;;
79074;SDS011;68476;42.710;23.388;2023-06-22T04:25:31;13.85;;;9.43;;
79074;SDS011;68476;42.710;23.388;2023-06-22T04:27:56;9.95;;;8.68;;
79074;SDS011;68476;42.710;23.388;2023-06-22T04:30:22;12.93;;;9.52;;
79074;SDS011;68476;42.710;23.388;2023-06-22T04:32:47;12.02;;;9.45;;
79074;SDS011;68476;42.710;23.388;2023-06-22T04:35:21;14.80;;;9.80;;
79074;SDS011;68476;42.710;23.388;2023-06-22T04:37:47;14.05;;;10.32;;
79074;SDS011;68476;42.710;23.388;2023-06-22T04:40:14;14.95;;;9.20;;
79074;SDS011;68476;42.710;23.388;2023-06-22T04:42:40;12.98;;;9.50;;
79074;SDS011;68476;42.710;23.388;2023-06-22T04:45:05;13.82;;;9.32;;
79074;SDS011;68476;42.710;23.388;2023-06-22T04:47:31;13.95;;;10.10;;
79074;SDS011;68476;42.710;23.388;2023-06-22T04:49:56;13.02;;;9.57;;
79074;SDS011;68476;42.710;23.388;2023-06-22T04:52:22;11.02;;;9.52;;
79074;SDS011;68476;42.710;23.388;2023-06-22T04:54:47;13.48;;;9.85;;
79074;SDS011;68476;42.710;23.388;2023-06-22T04:57:20;11.40;;;9.68;;
79074;SDS011;68476;42.710;23.388;2023-06-22T04:59:45;13.65;;;9.95;;
79074;SDS011;68476;42.710;23.388;2023-06-22T05:02:11;14.93;;;11.18;;
79074;SDS011;68476;42.710;23.388;2023-06-22T05:04:36;12.18;;;10.20;;
79074;SDS011;68476;42.710;23.388;2023-06-22T05:07:03;17.35;;;12.63;;
79074;SDS011;68476;42.710;23.388;2023-06-22T05:09:29;14.43;;;10.23;;
79074;SDS011;68476;42.710;23.388;2023-06-22T05:11:55;12.13;;;10.10;;
79074;SDS011;68476;42.710;23.388;2023-06-22T05:14:24;14.07;;;10.40;;
79074;SDS011;68476;42.710;23.388;2023-06-22T05:16:50;12.77;;;10.52;;
79074;SDS011;68476;42.710;23.388;2023-06-22T05:19:17;11.95;;;9.27;;
79074;SDS011;68476;42.710;23.388;2023-06-22T05:21:42;12.27;;;10.20;;
79074;SDS011;68476;42.710;23.388;2023-06-22T05:24:08;12.75;;;9.82;;
79074;SDS011;68476;42.710;23.388;2023-06-22T05:26:33;13.63;;;11.23;;
79074;SDS011;68476;42.710;23.388;2023-06-22T05:29:00;13.88;;;11.02;;
79074;SDS011;68476;42.710;23.388;2023-06-22T05:31:26;12.15;;;10.75;;
79074;SDS011;68476;42.710;23.388;2023-06-22T05:33:52;15.45;;;10.45;;
79074;SDS011;68476;42.710;23.388;2023-06-22T05:36:19;14.48;;;11.10;;
79074;SDS011;68476;42.710;23.388;2023-06-22T05:38:45;15.77;;;11.32;;
79074;SDS011;68476;42.710;23.388;2023-06-22T05:41:11;12.60;;;10.25;;
79074;SDS011;68476;42.710;23.388;2023-06-22T05:43:37;12.07;;;10.35;;
79074;SDS011;68476;42.710;23.388;2023-06-22T05:46:03;15.02;;;10.65;;
79074;SDS011;68476;42.710;23.388;2023-06-22T05:48:29;15.18;;;10.60;;
79074;SDS011;68476;42.710;23.388;2023-06-22T05:50:54;12.60;;;10.52;;
79074;SDS011;68476;42.710;23.388;2023-06-22T05:53:20;12.63;;;10.82;;
79074;SDS011;68476;42.710;23.388;2023-06-22T05:55:46;15.65;;;10.68;;
79074;SDS011;68476;42.710;23.388;2023-06-22T05:58:11;15.20;;;10.13;;
79074;SDS011;68476;42.710;23.388;2023-06-22T06:00:38;15.38;;;10.60;;
79074;SDS011;68476;42.710;23.388;2023-06-22T06:03:04;12.48;;;10.20;;
79074;SDS011;68476;42.710;23.388;2023-06-22T06:05:31;15.30;;;10.52;;
79074;SDS011;68476;42.710;23.388;2023-06-22T06:07:57;12.73;;;10.27;;
79074;SDS011;68476;42.710;23.388;2023-06-22T06:10:24;10.73;;;9.32;;
79074;SDS011;68476;42.710;23.388;2023-06-22T06:12:50;12.75;;;9.95;;
79074;SDS011;68476;42.710;23.388;2023-06-22T06:15:15;13.18;;;9.57;;
79074;SDS011;68476;42.710;23.388;2023-06-22T06:17:47;13.52;;;10.07;;
79074;SDS011;68476;42.710;23.388;2023-06-22T06:20:15;14.20;;;10.45;;
79074;SDS011;68476;42.710;23.388;2023-06-22T06:22:43;14.05;;;10.30;;
79074;SDS011;68476;42.710;23.388;2023-06-22T06:25:08;16.10;;;10.30;;
79074;SDS011;68476;42.710;23.388;2023-06-22T06:27:34;16.33;;;10.20;;
79074;SDS011;68476;42.710;23.388;2023-06-22T06:29:59;12.93;;;10.07;;
79074;SDS011;68476;42.710;23.388;2023-06-22T06:32:24;13.50;;;9.77;;
79074;SDS011;68476;42.710;23.388;2023-06-22T06:34:50;14.45;;;9.35;;
79074;SDS011;68476;42.710;23.388;2023-06-22T06:37:16;10.95;;;9.43;;
79074;SDS011;68476;42.710;23.388;2023-06-22T06:39:43;10.73;;;9.00;;
79074;SDS011;68476;42.710;23.388;2023-06-22T06:42:09;10.80;;;8.88;;
79074;SDS011;68476;42.710;23.388;2023-06-22T06:44:36;13.02;;;9.80;;
79074;SDS011;68476;42.710;23.388;2023-06-22T06:47:02;10.75;;;8.88;;
79074;SDS011;68476;42.710;23.388;2023-06-22T06:49:29;9.88;;;8.80;;
79074;SDS011;68476;42.710;23.388;2023-06-22T06:51:54;10.02;;;9.02;;
79074;SDS011;68476;42.710;23.388;2023-06-22T06:54:21;12.32;;;8.77;;
79074;SDS011;68476;42.710;23.388;2023-06-22T06:56:46;10.07;;;8.75;;
79074;SDS011;68476;42.710;23.388;2023-06-22T06:59:13;10.35;;;8.60;;
79074;SDS011;68476;42.710;23.388;2023-06-22T07:01:40;13.73;;;8.40;;
79074;SDS011;68476;42.710;23.388;2023-06-22T07:04:06;10.73;;;8.15;;
79074;SDS011;68476;42.710;23.388;2023-06-22T07:06:31;9.75;;;8.60;;
79074;SDS011;68476;42.710;23.388;2023-06-22T07:08:58;9.73;;;8.32;;
79074;SDS011;68476;42.710;23.388;2023-06-22T07:11:23;10.05;;;8.98;;
79074;SDS011;68476;42.710;23.388;2023-06-22T07:13:49;12.35;;;8.68;;
79074;SDS011;68476;42.710;23.388;2023-06-22T07:16:14;10.05;;;8.95;;
79074;SDS011;68476;42.710;23.388;2023-06-22T07:18:40;10.43;;;8.45;;
79074;SDS011;68476;42.710;23.388;2023-06-22T07:21:05;9.38;;;8.35;;
79074;SDS011;68476;42.710;23.388;2023-06-22T07:23:32;9.98;;;8.63;;
79074;SDS011;68476;42.710;23.388;2023-06-22T07:25:57;8.82;;;7.88;;
79074;SDS011;68476;42.710;23.388;2023-06-22T07:28:26;9.52;;;8.57;;
79074;SDS011;68476;42.710;23.388;2023-06-22T07:30:52;10.73;;;8.57;;
79074;SDS011;68476;42.710;23.388;2023-06-22T07:33:17;9.82;;;8.85;;
79074;SDS011;68476;42.710;23.388;2023-06-22T07:35:43;9.82;;;8.60;;
79074;SDS011;68476;42.710;23.388;2023-06-22T07:38:09;10.00;;;8.43;;
79074;SDS011;68476;42.710;23.388;2023-06-22T07:40:34;9.68;;;8.65;;
79074;SDS011;68476;42.710;23.388;2023-06-22T07:43:00;11.60;;;9.10;;
79074;SDS011;68476;42.710;23.388;2023-06-22T07:45:25;11.90;;;8.48;;
79074;SDS011;68476;42.710;23.388;2023-06-22T07:47:51;12.75;;;8.43;;
79074;SDS011;68476;42.710;23.388;2023-06-22T07:50:16;9.68;;;8.77;;
79074;SDS011;68476;42.710;23.388;2023-06-22T07:52:42;12.07;;;9.55;;
79074;SDS011;68476;42.710;23.388;2023-06-22T07:55:07;11.75;;;9.23;;
79074;SDS011;68476;42.710;23.388;2023-06-22T07:57:33;10.05;;;8.88;;
79074;SDS011;68476;42.710;23.388;2023-06-22T07:59:59;10.73;;;9.35;;
79074;SDS011;68476;42.710;23.388;2023-06-22T08:02:25;14.07;;;10.07;;
79074;SDS011;68476;42.710;23.388;2023-06-22T08:04:51;11.07;;;9.95;;
79074;SDS011;68476;42.710;23.388;2023-06-22T08:07:17;12.45;;;9.75;;
79074;SDS011;68476;42.710;23.388;2023-06-22T08:09:46;14.52;;;10.18;;
79074;SDS011;68476;42.710;23.388;2023-06-22T08:12:13;14.23;;;10.90;;
79074;SDS011;68476;42.710;23.388;2023-06-22T08:14:38;12.63;;;11.07;;
79074;SDS011;68476;42.710;23.388;2023-06-22T08:17:04;14.30;;;10.98;;
79074;SDS011;68476;42.710;23.388;2023-06-22T08:19:30;12.80;;;10.18;;
79074;SDS011;68476;42.710;23.388;2023-06-22T08:21:55;13.73;;;10.95;;
79074;SDS011;68476;42.710;23.388;2023-06-22T08:24:21;12.93;;;11.07;;
79074;SDS011;68476;42.710;23.388;2023-06-22T08:26:47;19.95;;;11.43;;
79074;SDS011;68476;42.710;23.388;2023-06-22T08:29:12;12.70;;;10.30;;
79074;SDS011;68476;42.710;23.388;2023-06-22T08:31:37;12.40;;;10.80;;
79074;SDS011;68476;42.710;23.388;2023-06-22T08:34:03;14.52;;;11.30;;
79074;SDS011;68476;42.710;23.388;2023-06-22T08:36:28;13.50;;;11.15;;
79074;SDS011;68476;42.710;23.388;2023-06-22T08:38:57;15.82;;;11.13;;
79074;SDS011;68476;42.710;23.388;2023-06-22T08:41:26;15.50;;;10.55;;
79074;SDS011;68476;42.710;23.388;2023-06-22T08:43:52;16.13;;;10.45;;
79074;SDS011;68476;42.710;23.388;2023-06-22T08:46:18;14.57;;;10.40;;
79074;SDS011;68476;42.710;23.388;2023-06-22T08:48:47;11.40;;;9.90;;
79074;SDS011;68476;42.710;23.388;2023-06-22T08:51:12;12.90;;;10.27;;
79074;SDS011;68476;42.710;23.388;2023-06-22T08:53:39;13.85;;;9.95;;
79074;SDS011;68476;42.710;23.388;2023-06-22T08:56:04;10.77;;;9.52;;
79074;SDS011;68476;42.710;23.388;2023-06-22T08:58:29;12.15;;;9.43;;
79074;SDS011;68476;42.710;23.388;2023-06-22T09:00:55;14.23;;;10.55;;
79074;SDS011;68476;42.710;23.388;2023-06-22T09:03:20;11.68;;;9.27;;
79074;SDS011;68476;42.710;23.388;2023-06-22T09:05:46;12.88;;;10.32;;
79074;SDS011;68476;42.710;23.388;2023-06-22T09:08:11;12.90;;;11.02;;
79074;SDS011;68476;42.710;23.388;2023-06-22T09:10:36;15.32;;;11.07;;
79074;SDS011;68476;42.710;23.388;2023-06-22T09:13:02;12.52;;;10.13;;
79074;SDS011;68476;42.710;23.388;2023-06-22T09:15:27;14.95;;;10.68;;
79074;SDS011;68476;42.710;23.388;2023-06-22T09:17:53;15.13;;;10.93;;
79074;SDS011;68476;42.710;23.388;2023-06-22T09:20:19;12.60;;;10.10;;
79074;SDS011;68476;42.710;23.388;2023-06-22T09:22:44;16.52;;;10.93;;
79074;SDS011;68476;42.710;23.388;2023-06-22T09:25:10;12.45;;;10.32;;
79074;SDS011;68476;42.710;23.388;2023-06-22T09:27:36;12.48;;;10.30;;
79074;SDS011;68476;42.710;23.388;2023-06-22T09:30:01;11.02;;;9.60;;
79074;SDS011;68476;42.710;23.388;2023-06-22T09:32:28;13.70;;;9.63;;
79074;SDS011;68476;42.710;23.388;2023-06-22T09:34:53;11.25;;;9.50;;
79074;SDS011;68476;42.710;23.388;2023-06-22T09:37:19;10.30;;;9.27;;
79074;SDS011;68476;42.710;23.388;2023-06-22T09:39:44;9.30;;;8.02;;
79074;SDS011;68476;42.710;23.388;2023-06-22T09:42:10;11.60;;;8.55;;
79074;SDS011;68476;42.710;23.388;2023-06-22T09:44:36;8.52;;;7.63;;
79074;SDS011;68476;42.710;23.388;2023-06-22T09:47:01;8.55;;;7.75;;
79074;SDS011;68476;42.710;23.388;2023-06-22T09:49:27;10.13;;;7.55;;
79074;SDS011;68476;42.710;23.388;2023-06-22T09:51:52;9.75;;;7.88;;
79074;SDS011;68476;42.710;23.388;2023-06-22T09:54:18;9.35;;;8.52;;
79074;SDS011;68476;42.710;23.388;2023-06-22T09:56:43;9.57;;;8.57;;
79074;SDS011;68476;42.710;23.388;2023-06-22T09:59:09;9.65;;;8.02;;
79074;SDS011;68476;42.710;23.388;2023-06-22T10:01:34;9.57;;;7.55;;
79074;SDS011;68476;42.710;23.388;2023-06-22T10:04:00;8.93;;;7.95;;
79074;SDS011;68476;42.710;23.388;2023-06-22T10:06:25;8.18;;;7.38;;
79074;SDS011;68476;42.710;23.388;2023-06-22T10:08:51;8.35;;;7.20;;
79074;SDS011;68476;42.710;23.388;2023-06-22T10:11:16;8.50;;;7.60;;
79074;SDS011;68476;42.710;23.388;2023-06-22T10:13:42;9.25;;;7.65;;
79074;SDS011;68476;42.710;23.388;2023-06-22T10:16:07;8.35;;;7.53;;
79074;SDS011;68476;42.710;23.388;2023-06-22T10:18:33;8.45;;;7.65;;
79074;SDS011;68476;42.710;23.388;2023-06-22T10:20:58;10.23;;;7.22;;
79074;SDS011;68476;42.710;23.388;2023-06-22T10:23:24;8.57;;;7.68;;
79074;SDS011;68476;42.710;23.388;2023-06-22T10:25:50;8.07;;;7.18;;
79074;SDS011;68476;42.710;23.388;2023-06-22T10:28:15;9.05;;;7.78;;
79074;SDS011;68476;42.710;23.388;2023-06-22T10:30:41;7.47;;;6.78;;
79074;SDS011;68476;42.710;23.388;2023-06-22T10:33:06;7.95;;;7.15;;
79074;SDS011;68476;42.710;23.388;2023-06-22T10:35:35;8.20;;;7.40;;
79074;SDS011;68476;42.710;23.388;2023-06-22T10:38:02;12.05;;;7.43;;
79074;SDS011;68476;42.710;23.388;2023-06-22T10:40:28;8.18;;;7.30;;
79074;SDS011;68476;42.710;23.388;2023-06-22T10:42:53;8.00;;;7.28;;
79074;SDS011;68476;42.710;23.388;2023-06-22T10:45:19;8.18;;;7.47;;
79074;SDS011;68476;42.710;23.388;2023-06-22T10:47:44;8.10;;;7.32;;
79074;SDS011;68476;42.710;23.388;2023-06-22T10:50:10;8.30;;;7.50;;
79074;SDS011;68476;42.710;23.388;2023-06-22T10:52:35;7.78;;;6.97;;
79074;SDS011;68476;42.710;23.388;2023-06-22T10:55:01;7.68;;;6.63;;
79074;SDS011;68476;42.710;23.388;2023-06-22T10:57:26;7.80;;;7.10;;
79074;SDS011;68476;42.710;23.388;2023-06-22T10:59:52;7.85;;;7.05;;
79074;SDS011;68476;42.710;23.388;2023-06-22T11:02:17;8.18;;;7.22;;
79074;SDS011;68476;42.710;23.388;2023-06-22T11:04:43;7.95;;;7.25;;
79074;SDS011;68476;42.710;23.388;2023-06-22T11:07:08;7.72;;;7.07;;
79074;SDS011;68476;42.710;23.388;2023-06-22T11:09:34;7.22;;;6.63;;
79074;SDS011;68476;42.710;23.388;2023-06-22T11:12:00;7.55;;;6.82;;
79074;SDS011;68476;42.710;23.388;2023-06-22T11:14:25;7.70;;;6.57;;
79074;SDS011;68476;42.710;23.388;2023-06-22T11:16:51;7.35;;;6.65;;
79074;SDS011;68476;42.710;23.388;2023-06-22T11:19:16;8.93;;;6.72;;
79074;SDS011;68476;42.710;23.388;2023-06-22T11:21:42;7.65;;;6.88;;
79074;SDS011;68476;42.710;23.388;2023-06-22T11:24:08;7.25;;;6.55;;
79074;SDS011;68476;42.710;23.388;2023-06-22T11:26:33;7.85;;;6.88;;
79074;SDS011;68476;42.710;23.388;2023-06-22T11:28:59;7.70;;;6.90;;
79074;SDS011;68476;42.710;23.388;2023-06-22T11:31:24;10.25;;;7.25;;
79074;SDS011;68476;42.710;23.388;2023-06-22T11:33:50;7.53;;;6.75;;
79074;SDS011;68476;42.710;23.388;2023-06-22T11:36:15;7.15;;;6.55;;
79074;SDS011;68476;42.710;23.388;2023-06-22T11:38:41;9.00;;;7.13;;
79074;SDS011;68476;42.710;23.388;2023-06-22T11:41:07;8.68;;;6.80;;
79074;SDS011;68476;42.710;23.388;2023-06-22T11:43:33;11.18;;;7.03;;
79074;SDS011;68476;42.710;23.388;2023-06-22T11:45:59;8.45;;;6.93;;
79074;SDS011;68476;42.710;23.388;2023-06-22T11:48:28;7.45;;;6.85;;
79074;SDS011;68476;42.710;23.388;2023-06-22T11:50:54;8.88;;;6.72;;
79074;SDS011;68476;42.710;23.388;2023-06-22T11:53:20;8.68;;;6.75;;
79074;SDS011;68476;42.710;23.388;2023-06-22T11:55:47;7.47;;;6.50;;
79074;SDS011;68476;42.710;23.388;2023-06-22T11:58:12;8.00;;;7.30;;
79074;SDS011;68476;42.710;23.388;2023-06-22T12:00:38;7.40;;;6.72;;
79074;SDS011;68476;42.710;23.388;2023-06-22T12:03:03;9.10;;;6.63;;
79074;SDS011;68476;42.710;23.388;2023-06-22T12:05:29;12.23;;;7.43;;
79074;SDS011;68476;42.710;23.388;2023-06-22T12:07:54;12.48;;;7.75;;
79074;SDS011;68476;42.710;23.388;2023-06-22T12:10:20;11.75;;;7.50;;
79074;SDS011;68476;42.710;23.388;2023-06-22T12:12:47;9.27;;;7.57;;
79074;SDS011;68476;42.710;23.388;2023-06-22T12:15:12;13.27;;;8.50;;
79074;SDS011;68476;42.710;23.388;2023-06-22T12:17:38;15.50;;;8.35;;
79074;SDS011;68476;42.710;23.388;2023-06-22T12:20:03;9.20;;;7.55;;
79074;SDS011;68476;42.710;23.388;2023-06-22T12:22:30;10.32;;;8.68;;
79074;SDS011;68476;42.710;23.388;2023-06-22T12:27:24;10.68;;;9.18;;
79074;SDS011;68476;42.710;23.388;2023-06-22T12:29:50;18.73;;;9.32;;
79074;SDS011;68476;42.710;23.388;2023-06-22T12:32:15;16.77;;;8.73;;
79074;SDS011;68476;42.710;23.388;2023-06-22T12:34:41;18.30;;;8.32;;
79074;SDS011;68476;42.710;23.388;2023-06-22T12:37:07;9.05;;;8.10;;
79074;SDS011;68476;42.710;23.388;2023-06-22T12:39:33;13.68;;;8.50;;
79074;SDS011;68476;42.710;23.388;2023-06-22T12:41:59;12.30;;;8.82;;
79074;SDS011;68476;42.710;23.388;2023-06-22T12:44:24;14.00;;;9.15;;
79074;SDS011;68476;42.710;23.388;2023-06-22T12:46:50;11.75;;;7.30;;
79074;SDS011;68476;42.710;23.388;2023-06-22T12:49:15;13.57;;;8.02;;
79074;SDS011;68476;42.710;23.388;2023-06-22T12:51:41;10.57;;;7.20;;
79074;SDS011;68476;42.710;23.388;2023-06-22T12:54:07;12.77;;;7.88;;
79074;SDS011;68476;42.710;23.388;2023-06-22T12:56:33;8.98;;;7.18;;
79074;SDS011;68476;42.710;23.388;2023-06-22T12:58:59;13.77;;;7.18;;
79074;SDS011;68476;42.710;23.388;2023-06-22T13:01:27;17.45;;;7.97;;
79074;SDS011;68476;42.710;23.388;2023-06-22T13:03:52;11.60;;;8.02;;
79074;SDS011;68476;42.710;23.388;2023-06-22T13:06:18;15.25;;;7.45;;
79074;SDS011;68476;42.710;23.388;2023-06-22T13:08:44;12.20;;;7.30;;
79074;SDS011;68476;42.710;23.388;2023-06-22T13:11:10;9.48;;;6.85;;
79074;SDS011;68476;42.710;23.388;2023-06-22T13:13:35;10.88;;;7.78;;
79074;SDS011;68476;42.710;23.388;2023-06-22T13:16:01;19.42;;;8.43;;
79074;SDS011;68476;42.710;23.388;2023-06-22T13:18:26;10.80;;;7.70;;
79074;SDS011;68476;42.710;23.388;2023-06-22T13:20:52;12.05;;;8.50;;
79074;SDS011;68476;42.710;23.388;2023-06-22T13:23:19;9.23;;;7.47;;
79074;SDS011;68476;42.710;23.388;2023-06-22T13:25:46;10.95;;;7.18;;
79074;SDS011;68476;42.710;23.388;2023-06-22T13:28:11;15.10;;;7.53;;
79074;SDS011;68476;42.710;23.388;2023-06-22T13:30:38;12.13;;;7.93;;
79074;SDS011;68476;42.710;23.388;2023-06-22T13:33:04;12.07;;;6.95;;
79074;SDS011;68476;42.710;23.388;2023-06-22T13:35:29;9.75;;;7.20;;
79074;SDS011;68476;42.710;23.388;2023-06-22T13:37:55;10.20;;;7.63;;
79074;SDS011;68476;42.710;23.388;2023-06-22T13:40:20;11.13;;;7.93;;
79074;SDS011;68476;42.710;23.388;2023-06-22T13:42:46;12.65;;;8.52;;
79074;SDS011;68476;42.710;23.388;2023-06-22T13:45:11;13.68;;;8.95;;
79074;SDS011;68476;42.710;23.388;2023-06-22T13:47:36;11.05;;;8.88;;
79074;SDS011;68476;42.710;23.388;2023-06-22T13:50:02;10.52;;;8.02;;
79074;SDS011;68476;42.710;23.388;2023-06-22T13:52:28;11.77;;;8.82;;
79074;SDS011;68476;42.710;23.388;2023-06-22T13:54:53;10.93;;;8.85;;
79074;SDS011;68476;42.710;23.388;2023-06-22T13:57:19;11.27;;;9.25;;
79074;SDS011;68476;42.710;23.388;2023-06-22T13:59:44;10.80;;;9.65;;
79074;SDS011;68476;42.710;23.388;2023-06-22T14:02:09;11.60;;;8.70;;
79074;SDS011;68476;42.710;23.388;2023-06-22T14:04:35;11.50;;;8.52;;
79074;SDS011;68476;42.710;23.388;2023-06-22T14:07:00;12.13;;;9.00;;
79074;SDS011;68476;42.710;23.388;2023-06-22T14:09:26;13.60;;;8.85;;
79074;SDS011;68476;42.710;23.388;2023-06-22T14:11:53;11.02;;;8.50;;
79074;SDS011;68476;42.710;23.388;2023-06-22T14:14:19;13.93;;;9.02;;
79074;SDS011;68476;42.710;23.388;2023-06-22T14:16:44;10.82;;;8.82;;
79074;SDS011;68476;42.710;23.388;2023-06-22T14:19:10;13.20;;;9.23;;
79074;SDS011;68476;42.710;23.388;2023-06-22T14:21:35;16.55;;;9.32;;
79074;SDS011;68476;42.710;23.388;2023-06-22T14:24:01;13.18;;;8.98;;
79074;SDS011;68476;42.710;23.388;2023-06-22T14:26:26;13.23;;;8.95;;
79074;SDS011;68476;42.710;23.388;2023-06-22T14:28:51;10.82;;;8.90;;
79074;SDS011;68476;42.710;23.388;2023-06-22T14:31:19;11.05;;;7.90;;
79074;SDS011;68476;42.710;23.388;2023-06-22T14:33:48;11.02;;;8.13;;